sensor_id;sensor_type;location;lat;lon;timestamp;pressure;altitude;pressure_sealevel;temperature;humidity
4022;BME280;2025;48.260;16.432;2023-08-20T00:01:00;100197.91;;;20.08;93.68
4022;BME280;2025;48.260;16.432;2023-08-20T00:03:29;100195.91;;;20.04;93.82
4022;BME280;2025;48.260;16.432;2023-08-20T00:05:57;100195.53;;;20.00;94.13
4022;BME280;2025;48.260;16.432;2023-08-20T00:08:24;100196.75;;;19.97;94.40
4022;BME280;2025;48.260;16.432;2023-08-20T00:10:52;100195.59;;;19.93;94.35
4022;BME280;2025;48.260;16.432;2023-08-20T00:13:19;100199.88;;;19.94;94.10
4022;BME280;2025;48.260;16.432;2023-08-20T00:15:46;100193.56;;;19.89;94.40
4022;BME280;2025;48.260;16.432;2023-08-20T00:18:14;100192.72;;;19.88;94.64
4022;BME280;2025;48.260;16.432;2023-08-20T00:20:42;100185.31;;;19.90;94.77
4022;BME280;2025;48.260;16.432;2023-08-20T00:23:11;100191.78;;;19.83;94.79
4022;BME280;2025;48.260;16.432;2023-08-20T00:25:39;100194.91;;;19.79;94.91
4022;BME280;2025;48.260;16.432;2023-08-20T00:28:07;100183.59;;;19.77;95.49
4022;BME280;2025;48.260;16.432;2023-08-20T00:30:34;100191.81;;;19.76;95.79
4022;BME280;2025;48.260;16.432;2023-08-20T00:33:01;100189.59;;;19.73;95.47
4022;BME280;2025;48.260;16.432;2023-08-20T00:35:28;100191.25;;;19.67;95.35
4022;BME280;2025;48.260;16.432;2023-08-20T00:37:55;100190.88;;;19.64;95.57
4022;BME280;2025;48.260;16.432;2023-08-20T00:40:22;100191.09;;;19.62;95.83
4022;BME280;2025;48.260;16.432;2023-08-20T00:42:49;100192.13;;;19.61;96.01
4022;BME280;2025;48.260;16.432;2023-08-20T00:45:17;100191.09;;;19.62;95.94
4022;BME280;2025;48.260;16.432;2023-08-20T00:47:44;100196.66;;;19.61;95.85
4022;BME280;2025;48.260;16.432;2023-08-20T00:50:11;100197.31;;;19.56;96.29
4022;BME280;2025;48.260;16.432;2023-08-20T00:52:39;100197.97;;;19.51;96.82
4022;BME280;2025;48.260;16.432;2023-08-20T00:55:08;100209.25;;;19.53;96.51
4022;BME280;2025;48.260;16.432;2023-08-20T00:57:36;100194.25;;;19.52;96.58
4022;BME280;2025;48.260;16.432;2023-08-20T01:00:05;100209.19;;;19.60;96.23
4022;BME280;2025;48.260;16.432;2023-08-20T01:02:37;100198.78;;;19.52;96.26
4022;BME280;2025;48.260;16.432;2023-08-20T01:05:05;100194.34;;;19.64;96.27
4022;BME280;2025;48.260;16.432;2023-08-20T01:07:42;100204.84;;;19.66;95.97
4022;BME280;2025;48.260;16.432;2023-08-20T01:10:15;100200.94;;;19.68;95.30
4022;BME280;2025;48.260;16.432;2023-08-20T01:12:45;100202.81;;;19.61;95.70
4022;BME280;2025;48.260;16.432;2023-08-20T01:15:12;100200.94;;;19.68;95.19
4022;BME280;2025;48.260;16.432;2023-08-20T01:17:42;100205.03;;;19.64;95.42
4022;BME280;2025;48.260;16.432;2023-08-20T01:20:12;100210.03;;;19.61;95.46
4022;BME280;2025;48.260;16.432;2023-08-20T01:23:03;100209.78;;;19.62;95.18
4022;BME280;2025;48.260;16.432;2023-08-20T01:25:49;100212.47;;;19.62;95.19
4022;BME280;2025;48.260;16.432;2023-08-20T01:28:24;100215.56;;;19.59;95.14
4022;BME280;2025;48.260;16.432;2023-08-20T01:30:53;100217.00;;;19.62;94.85
4022;BME280;2025;48.260;16.432;2023-08-20T01:33:20;100217.97;;;19.67;94.71
4022;BME280;2025;48.260;16.432;2023-08-20T01:35:48;100214.00;;;19.76;93.94
4022;BME280;2025;48.260;16.432;2023-08-20T01:38:15;100212.00;;;19.97;92.66
4022;BME280;2025;48.260;16.432;2023-08-20T01:40:42;100212.53;;;20.06;91.79
4022;BME280;2025;48.260;16.432;2023-08-20T01:43:09;100218.34;;;20.03;91.94
4022;BME280;2025;48.260;16.432;2023-08-20T01:45:37;100212.47;;;20.12;90.89
4022;BME280;2025;48.260;16.432;2023-08-20T01:48:05;100221.41;;;20.25;90.08
4022;BME280;2025;48.260;16.432;2023-08-20T01:50:33;100205.88;;;20.33;89.66
4022;BME280;2025;48.260;16.432;2023-08-20T01:53:00;100207.50;;;20.34;89.47
4022;BME280;2025;48.260;16.432;2023-08-20T01:55:28;100219.09;;;20.28;89.90
4022;BME280;2025;48.260;16.432;2023-08-20T01:57:55;100215.91;;;20.19;90.13
4022;BME280;2025;48.260;16.432;2023-08-20T02:00:22;100214.16;;;20.07;90.00
4022;BME280;2025;48.260;16.432;2023-08-20T02:02:50;100221.06;;;19.96;90.29
4022;BME280;2025;48.260;16.432;2023-08-20T02:05:18;100218.22;;;19.91;90.66
4022;BME280;2025;48.260;16.432;2023-08-20T02:07:45;100213.91;;;19.90;90.98
4022;BME280;2025;48.260;16.432;2023-08-20T02:10:12;100213.31;;;19.88;91.18
4022;BME280;2025;48.260;16.432;2023-08-20T02:12:39;100219.69;;;19.87;91.20
4022;BME280;2025;48.260;16.432;2023-08-20T02:15:07;100210.22;;;19.91;91.41
4022;BME280;2025;48.260;16.432;2023-08-20T02:17:34;100215.38;;;19.86;91.11
4022;BME280;2025;48.260;16.432;2023-08-20T02:20:04;100226.97;;;19.79;90.79
4022;BME280;2025;48.260;16.432;2023-08-20T02:22:33;100223.69;;;19.77;91.36
4022;BME280;2025;48.260;16.432;2023-08-20T02:25:00;100216.31;;;19.73;91.29
4022;BME280;2025;48.260;16.432;2023-08-20T02:27:27;100217.38;;;19.65;92.08
4022;BME280;2025;48.260;16.432;2023-08-20T02:29:54;100209.03;;;19.55;92.43
4022;BME280;2025;48.260;16.432;2023-08-20T02:32:21;100204.56;;;19.49;92.94
4022;BME280;2025;48.260;16.432;2023-08-20T02:34:49;100199.63;;;19.46;93.38
4022;BME280;2025;48.260;16.432;2023-08-20T02:37:17;100202.94;;;19.41;93.41
4022;BME280;2025;48.260;16.432;2023-08-20T02:39:44;100202.63;;;19.31;94.01
4022;BME280;2025;48.260;16.432;2023-08-20T02:42:11;100200.16;;;19.29;95.22
4022;BME280;2025;48.260;16.432;2023-08-20T02:44:39;100196.69;;;19.29;95.50
4022;BME280;2025;48.260;16.432;2023-08-20T02:47:06;100201.22;;;19.28;95.60
4022;BME280;2025;48.260;16.432;2023-08-20T02:49:32;100196.47;;;19.30;95.41
4022;BME280;2025;48.260;16.432;2023-08-20T02:51:59;100201.41;;;19.27;95.71
4022;BME280;2025;48.260;16.432;2023-08-20T02:54:29;100206.16;;;19.25;95.69
4022;BME280;2025;48.260;16.432;2023-08-20T02:56:57;100202.50;;;19.19;95.33
4022;BME280;2025;48.260;16.432;2023-08-20T02:59:24;100207.25;;;19.10;95.66
4022;BME280;2025;48.260;16.432;2023-08-20T03:01:51;100220.22;;;19.07;95.91
4022;BME280;2025;48.260;16.432;2023-08-20T03:04:18;100219.19;;;19.08;95.92
4022;BME280;2025;48.260;16.432;2023-08-20T03:06:45;100216.31;;;19.09;95.93
4022;BME280;2025;48.260;16.432;2023-08-20T03:09:12;100220.59;;;19.10;96.28
4022;BME280;2025;48.260;16.432;2023-08-20T03:11:41;100211.19;;;19.08;96.56
4022;BME280;2025;48.260;16.432;2023-08-20T03:14:08;100224.69;;;19.13;96.39
4022;BME280;2025;48.260;16.432;2023-08-20T03:16:35;100218.88;;;19.23;95.92
4022;BME280;2025;48.260;16.432;2023-08-20T03:19:02;100226.50;;;19.26;96.46
4022;BME280;2025;48.260;16.432;2023-08-20T03:21:29;100231.34;;;19.35;96.19
4022;BME280;2025;48.260;16.432;2023-08-20T03:23:56;100219.75;;;19.48;95.67
4022;BME280;2025;48.260;16.432;2023-08-20T03:26:23;100212.91;;;19.59;94.63
4022;BME280;2025;48.260;16.432;2023-08-20T03:28:51;100215.63;;;19.52;94.65
4022;BME280;2025;48.260;16.432;2023-08-20T03:31:18;100207.59;;;19.52;94.63
4022;BME280;2025;48.260;16.432;2023-08-20T03:33:45;100212.78;;;19.47;94.21
4022;BME280;2025;48.260;16.432;2023-08-20T03:36:12;100211.88;;;19.28;94.40
4022;BME280;2025;48.260;16.432;2023-08-20T03:38:39;100211.53;;;19.18;95.08
4022;BME280;2025;48.260;16.432;2023-08-20T03:41:06;100207.06;;;19.12;95.28
4022;BME280;2025;48.260;16.432;2023-08-20T03:43:32;100222.91;;;19.07;95.61
4022;BME280;2025;48.260;16.432;2023-08-20T03:46:01;100225.78;;;19.05;96.22
4022;BME280;2025;48.260;16.432;2023-08-20T03:48:28;100227.88;;;18.97;96.09
4022;BME280;2025;48.260;16.432;2023-08-20T03:50:56;100227.28;;;18.88;96.74
4022;BME280;2025;48.260;16.432;2023-08-20T03:53:22;100233.84;;;18.85;97.07
4022;BME280;2025;48.260;16.432;2023-08-20T03:55:50;100230.00;;;18.81;97.78
4022;BME280;2025;48.260;16.432;2023-08-20T03:58:17;100236.72;;;18.90;98.55
4022;BME280;2025;48.260;16.432;2023-08-20T04:00:44;100235.41;;;19.06;96.84
4022;BME280;2025;48.260;16.432;2023-08-20T04:03:12;100235.19;;;19.08;97.16
4022;BME280;2025;48.260;16.432;2023-08-20T04:05:39;100237.06;;;19.07;97.00
4022;BME280;2025;48.260;16.432;2023-08-20T04:08:06;100236.88;;;19.02;96.79
4022;BME280;2025;48.260;16.432;2023-08-20T04:10:33;100236.25;;;19.07;97.14
4022;BME280;2025;48.260;16.432;2023-08-20T04:13:00;100238.00;;;19.20;97.17
4022;BME280;2025;48.260;16.432;2023-08-20T04:15:27;100235.91;;;19.28;96.65
4022;BME280;2025;48.260;16.432;2023-08-20T04:17:54;100237.13;;;19.32;96.47
4022;BME280;2025;48.260;16.432;2023-08-20T04:20:22;100244.06;;;19.40;95.85
4022;BME280;2025;48.260;16.432;2023-08-20T04:22:49;100246.94;;;19.38;96.11
4022;BME280;2025;48.260;16.432;2023-08-20T04:25:16;100247.16;;;19.37;95.48
4022;BME280;2025;48.260;16.432;2023-08-20T04:27:43;100245.91;;;19.40;95.90
4022;BME280;2025;48.260;16.432;2023-08-20T04:30:11;100256.16;;;19.43;95.76
4022;BME280;2025;48.260;16.432;2023-08-20T04:32:38;100256.94;;;19.50;95.68
4022;BME280;2025;48.260;16.432;2023-08-20T04:35:06;100265.72;;;19.57;95.41
4022;BME280;2025;48.260;16.432;2023-08-20T04:37:34;100258.69;;;19.63;94.87
4022;BME280;2025;48.260;16.432;2023-08-20T04:40:01;100262.56;;;19.67;94.89
4022;BME280;2025;48.260;16.432;2023-08-20T04:42:31;100259.03;;;19.79;94.33
4022;BME280;2025;48.260;16.432;2023-08-20T04:44:58;100257.94;;;19.87;93.90
4022;BME280;2025;48.260;16.432;2023-08-20T04:47:25;100261.25;;;19.83;94.05
4022;BME280;2025;48.260;16.432;2023-08-20T04:49:52;100261.00;;;19.91;93.09
4022;BME280;2025;48.260;16.432;2023-08-20T04:52:19;100261.16;;;19.96;93.38
4022;BME280;2025;48.260;16.432;2023-08-20T04:54:48;100272.22;;;19.99;93.28
4022;BME280;2025;48.260;16.432;2023-08-20T04:57:15;100274.47;;;20.03;93.57
4022;BME280;2025;48.260;16.432;2023-08-20T04:59:42;100269.66;;;20.11;92.83
4022;BME280;2025;48.260;16.432;2023-08-20T05:02:10;100273.97;;;20.12;92.09
4022;BME280;2025;48.260;16.432;2023-08-20T05:04:38;100275.63;;;20.32;90.44
4022;BME280;2025;48.260;16.432;2023-08-20T05:07:05;100272.97;;;20.50;90.26
4022;BME280;2025;48.260;16.432;2023-08-20T05:09:32;100278.72;;;20.54;90.03
4022;BME280;2025;48.260;16.432;2023-08-20T05:12:01;100284.53;;;20.69;89.14
4022;BME280;2025;48.260;16.432;2023-08-20T05:14:29;100285.75;;;20.73;89.01
4022;BME280;2025;48.260;16.432;2023-08-20T05:16:56;100287.06;;;20.82;88.51
4022;BME280;2025;48.260;16.432;2023-08-20T05:19:23;100291.75;;;20.87;88.15
4022;BME280;2025;48.260;16.432;2023-08-20T05:21:50;100286.94;;;20.96;86.90
4022;BME280;2025;48.260;16.432;2023-08-20T05:24:20;100284.06;;;21.09;87.38
4022;BME280;2025;48.260;16.432;2023-08-20T05:27:17;100290.06;;;21.23;86.45
4022;BME280;2025;48.260;16.432;2023-08-20T05:29:52;100288.28;;;21.35;85.64
4022;BME280;2025;48.260;16.432;2023-08-20T05:32:23;100294.53;;;21.48;84.55
4022;BME280;2025;48.260;16.432;2023-08-20T05:34:55;100296.72;;;21.51;84.70
4022;BME280;2025;48.260;16.432;2023-08-20T05:37:22;100300.94;;;21.58;83.88
4022;BME280;2025;48.260;16.432;2023-08-20T05:39:49;100306.94;;;21.72;83.38
4022;BME280;2025;48.260;16.432;2023-08-20T05:42:17;100314.78;;;21.85;82.48
4022;BME280;2025;48.260;16.432;2023-08-20T05:44:44;100314.06;;;21.78;81.71
4022;BME280;2025;48.260;16.432;2023-08-20T05:47:11;100311.41;;;21.90;80.70
4022;BME280;2025;48.260;16.432;2023-08-20T05:49:38;100317.00;;;22.00;80.59
4022;BME280;2025;48.260;16.432;2023-08-20T05:52:05;100319.25;;;22.03;79.58
4022;BME280;2025;48.260;16.432;2023-08-20T05:54:32;100315.03;;;21.96;80.52
4022;BME280;2025;48.260;16.432;2023-08-20T05:56:59;100317.38;;;22.04;81.20
4022;BME280;2025;48.260;16.432;2023-08-20T05:59:28;100316.69;;;22.08;79.81
4022;BME280;2025;48.260;16.432;2023-08-20T06:01:55;100309.69;;;22.07;79.32
4022;BME280;2025;48.260;16.432;2023-08-20T06:04:22;100316.00;;;22.13;80.36
4022;BME280;2025;48.260;16.432;2023-08-20T06:06:49;100308.97;;;22.12;80.77
4022;BME280;2025;48.260;16.432;2023-08-20T06:09:16;100313.44;;;22.18;80.67
4022;BME280;2025;48.260;16.432;2023-08-20T06:11:43;100316.84;;;22.25;80.52
4022;BME280;2025;48.260;16.432;2023-08-20T06:14:17;100315.34;;;22.29;79.82
4022;BME280;2025;48.260;16.432;2023-08-20T06:16:52;100309.75;;;22.43;80.21
4022;BME280;2025;48.260;16.432;2023-08-20T06:19:28;100313.00;;;22.57;79.53
4022;BME280;2025;48.260;16.432;2023-08-20T06:21:55;100318.00;;;22.65;80.26
4022;BME280;2025;48.260;16.432;2023-08-20T06:24:22;100320.34;;;22.73;80.90
4022;BME280;2025;48.260;16.432;2023-08-20T06:26:49;100317.38;;;22.86;78.21
4022;BME280;2025;48.260;16.432;2023-08-20T06:29:16;100321.72;;;22.87;77.74
4022;BME280;2025;48.260;16.432;2023-08-20T06:31:43;100320.75;;;22.93;77.46
4022;BME280;2025;48.260;16.432;2023-08-20T06:34:12;100320.28;;;22.97;79.48
4022;BME280;2025;48.260;16.432;2023-08-20T06:36:39;100306.16;;;23.13;77.38
4022;BME280;2025;48.260;16.432;2023-08-20T06:39:05;100306.09;;;23.25;78.11
4022;BME280;2025;48.260;16.432;2023-08-20T06:41:33;100307.31;;;23.46;75.26
4022;BME280;2025;48.260;16.432;2023-08-20T06:44:00;100309.28;;;23.50;75.61
4022;BME280;2025;48.260;16.432;2023-08-20T06:46:27;100306.59;;;23.67;73.47
4022;BME280;2025;48.260;16.432;2023-08-20T06:48:54;100303.69;;;23.69;74.22
4022;BME280;2025;48.260;16.432;2023-08-20T06:51:22;100300.81;;;23.59;75.31
4022;BME280;2025;48.260;16.432;2023-08-20T06:53:50;100302.44;;;23.60;77.02
4022;BME280;2025;48.260;16.432;2023-08-20T06:56:17;100303.03;;;23.62;78.84
4022;BME280;2025;48.260;16.432;2023-08-20T06:58:44;100300.81;;;23.59;75.00
4022;BME280;2025;48.260;16.432;2023-08-20T07:01:11;100295.19;;;23.60;74.91
4022;BME280;2025;48.260;16.432;2023-08-20T07:03:39;100297.00;;;23.71;72.60
4022;BME280;2025;48.260;16.432;2023-08-20T07:06:07;100301.19;;;23.79;74.24
4022;BME280;2025;48.260;16.432;2023-08-20T07:08:36;100303.81;;;23.91;73.10
4022;BME280;2025;48.260;16.432;2023-08-20T07:11:04;100307.91;;;24.10;71.92
4022;BME280;2025;48.260;16.432;2023-08-20T07:13:31;100310.16;;;24.18;72.78
4022;BME280;2025;48.260;16.432;2023-08-20T07:15:59;100314.06;;;24.28;71.29
4022;BME280;2025;48.260;16.432;2023-08-20T07:18:26;100314.03;;;24.45;70.04
4022;BME280;2025;48.260;16.432;2023-08-20T07:20:54;100318.97;;;24.48;72.10
4022;BME280;2025;48.260;16.432;2023-08-20T07:23:22;100324.44;;;24.53;68.30
4022;BME280;2025;48.260;16.432;2023-08-20T07:25:50;100322.94;;;24.62;69.66
4022;BME280;2025;48.260;16.432;2023-08-20T07:28:18;100322.56;;;24.75;69.59
4022;BME280;2025;48.260;16.432;2023-08-20T07:31:05;100323.72;;;24.79;68.46
4022;BME280;2025;48.260;16.432;2023-08-20T07:33:32;100327.66;;;24.94;70.32
4022;BME280;2025;48.260;16.432;2023-08-20T07:35:59;100326.78;;;25.10;68.36
4022;BME280;2025;48.260;16.432;2023-08-20T07:38:26;100324.41;;;25.14;69.12
4022;BME280;2025;48.260;16.432;2023-08-20T07:40:54;100330.63;;;25.36;66.85
4022;BME280;2025;48.260;16.432;2023-08-20T07:43:21;100328.59;;;25.49;66.31
4022;BME280;2025;48.260;16.432;2023-08-20T07:45:48;100330.88;;;25.62;65.67
4022;BME280;2025;48.260;16.432;2023-08-20T07:48:15;100332.09;;;25.76;66.38
4022;BME280;2025;48.260;16.432;2023-08-20T07:50:42;100334.66;;;25.88;65.36
4022;BME280;2025;48.260;16.432;2023-08-20T07:53:09;100335.00;;;25.97;67.25
4022;BME280;2025;48.260;16.432;2023-08-20T07:55:36;100333.97;;;26.03;64.82
4022;BME280;2025;48.260;16.432;2023-08-20T07:58:04;100332.19;;;26.19;64.40
4022;BME280;2025;48.260;16.432;2023-08-20T08:00:31;100333.38;;;26.33;61.86
4022;BME280;2025;48.260;16.432;2023-08-20T08:02:58;100336.38;;;26.37;62.35
4022;BME280;2025;48.260;16.432;2023-08-20T08:05:25;100332.13;;;26.46;61.73
4022;BME280;2025;48.260;16.432;2023-08-20T08:07:52;100333.19;;;26.45;64.08
4022;BME280;2025;48.260;16.432;2023-08-20T08:10:19;100328.34;;;26.47;61.36
4022;BME280;2025;48.260;16.432;2023-08-20T08:12:46;100334.38;;;26.59;61.18
4022;BME280;2025;48.260;16.432;2023-08-20T08:15:15;100337.66;;;26.66;62.49
4022;BME280;2025;48.260;16.432;2023-08-20T08:17:41;100320.94;;;26.69;61.52
4022;BME280;2025;48.260;16.432;2023-08-20T08:20:09;100331.56;;;26.86;62.48
4022;BME280;2025;48.260;16.432;2023-08-20T08:22:36;100332.38;;;26.87;61.71
4022;BME280;2025;48.260;16.432;2023-08-20T08:25:03;100323.47;;;26.97;59.66
4022;BME280;2025;48.260;16.432;2023-08-20T08:27:30;100320.78;;;26.97;59.90
4022;BME280;2025;48.260;16.432;2023-08-20T08:29:57;100324.09;;;27.09;60.94
4022;BME280;2025;48.260;16.432;2023-08-20T08:32:26;100324.34;;;27.12;60.32
4022;BME280;2025;48.260;16.432;2023-08-20T08:34:53;100333.56;;;27.17;59.94
4022;BME280;2025;48.260;16.432;2023-08-20T08:37:20;100330.56;;;27.13;58.95
4022;BME280;2025;48.260;16.432;2023-08-20T08:39:48;100334.16;;;27.29;59.38
4022;BME280;2025;48.260;16.432;2023-08-20T08:42:16;100333.38;;;27.39;62.65
4022;BME280;2025;48.260;16.432;2023-08-20T08:44:45;100326.13;;;27.60;59.59
4022;BME280;2025;48.260;16.432;2023-08-20T08:47:12;100334.28;;;27.85;57.80
4022;BME280;2025;48.260;16.432;2023-08-20T08:49:41;100326.44;;;27.99;56.22
4022;BME280;2025;48.260;16.432;2023-08-20T08:52:10;100329.16;;;28.04;56.97
4022;BME280;2025;48.260;16.432;2023-08-20T08:54:37;100334.81;;;28.13;57.52
4022;BME280;2025;48.260;16.432;2023-08-20T08:57:05;100337.00;;;28.11;57.08
4022;BME280;2025;48.260;16.432;2023-08-20T08:59:32;100333.75;;;28.19;56.73
4022;BME280;2025;48.260;16.432;2023-08-20T09:01:59;100327.25;;;28.30;56.72
4022;BME280;2025;48.260;16.432;2023-08-20T09:04:26;100328.56;;;28.38;56.49
4022;BME280;2025;48.260;16.432;2023-08-20T09:06:55;100331.56;;;28.42;57.66
4022;BME280;2025;48.260;16.432;2023-08-20T09:09:22;100333.44;;;28.41;56.37
4022;BME280;2025;48.260;16.432;2023-08-20T09:11:49;100331.03;;;28.50;56.17
4022;BME280;2025;48.260;16.432;2023-08-20T09:14:23;100335.56;;;28.65;56.77
4022;BME280;2025;48.260;16.432;2023-08-20T09:16:54;100336.38;;;28.70;54.12
4022;BME280;2025;48.260;16.432;2023-08-20T09:19:22;100332.81;;;28.80;53.86
4022;BME280;2025;48.260;16.432;2023-08-20T09:21:50;100334.97;;;28.93;54.33
4022;BME280;2025;48.260;16.432;2023-08-20T09:24:26;100330.59;;;29.08;54.69
4022;BME280;2025;48.260;16.432;2023-08-20T09:26:57;100337.00;;;29.22;52.22
4022;BME280;2025;48.260;16.432;2023-08-20T09:29:24;100329.38;;;29.29;51.94
4022;BME280;2025;48.260;16.432;2023-08-20T09:32:00;100334.22;;;29.37;50.83
4022;BME280;2025;48.260;16.432;2023-08-20T09:34:36;100330.38;;;29.44;51.19
4022;BME280;2025;48.260;16.432;2023-08-20T09:37:05;100324.91;;;29.54;49.58
4022;BME280;2025;48.260;16.432;2023-08-20T09:39:35;100331.94;;;29.55;48.32
4022;BME280;2025;48.260;16.432;2023-08-20T09:42:04;100329.19;;;29.60;48.69
4022;BME280;2025;48.260;16.432;2023-08-20T09:44:33;100321.53;;;29.72;50.60
4022;BME280;2025;48.260;16.432;2023-08-20T09:47:02;100316.81;;;29.83;47.46
4022;BME280;2025;48.260;16.432;2023-08-20T09:49:30;100316.97;;;29.97;48.07
4022;BME280;2025;48.260;16.432;2023-08-20T09:52:03;100312.81;;;30.10;45.81
4022;BME280;2025;48.260;16.432;2023-08-20T09:54:36;100321.97;;;30.19;46.54
4022;BME280;2025;48.260;16.432;2023-08-20T09:57:07;100316.47;;;30.24;45.26
4022;BME280;2025;48.260;16.432;2023-08-20T09:59:38;100315.81;;;30.37;44.93
4022;BME280;2025;48.260;16.432;2023-08-20T10:02:10;100321.22;;;30.42;46.07
4022;BME280;2025;48.260;16.432;2023-08-20T10:04:38;100308.53;;;30.57;43.72
4022;BME280;2025;48.260;16.432;2023-08-20T10:07:06;100302.97;;;30.67;44.15
4022;BME280;2025;48.260;16.432;2023-08-20T10:09:36;100307.97;;;30.84;42.08
4022;BME280;2025;48.260;16.432;2023-08-20T10:12:04;100306.59;;;30.86;42.04
4022;BME280;2025;48.260;16.432;2023-08-20T10:14:32;100299.03;;;31.02;42.22
4022;BME280;2025;48.260;16.432;2023-08-20T10:17:00;100307.00;;;31.18;40.04
4022;BME280;2025;48.260;16.432;2023-08-20T10:19:32;100302.88;;;31.39;40.75
4022;BME280;2025;48.260;16.432;2023-08-20T10:22:02;100301.47;;;31.61;39.94
4022;BME280;2025;48.260;16.432;2023-08-20T10:24:29;100294.22;;;31.89;38.22
4022;BME280;2025;48.260;16.432;2023-08-20T10:27:10;100290.03;;;31.97;38.71
4022;BME280;2025;48.260;16.432;2023-08-20T10:29:38;100287.00;;;32.12;38.68
4022;BME280;2025;48.260;16.432;2023-08-20T10:32:08;100290.69;;;32.35;36.25
4022;BME280;2025;48.260;16.432;2023-08-20T10:34:36;100283.94;;;32.60;36.83
4022;BME280;2025;48.260;16.432;2023-08-20T10:37:09;100281.25;;;33.24;36.77
4022;BME280;2025;48.260;16.432;2023-08-20T10:39:36;100285.97;;;33.77;35.43
4022;BME280;2025;48.260;16.432;2023-08-20T10:42:22;100275.38;;;34.07;35.08
4022;BME280;2025;48.260;16.432;2023-08-20T10:44:58;100282.97;;;34.50;33.89
4022;BME280;2025;48.260;16.432;2023-08-20T10:47:25;100287.44;;;34.37;33.89
4022;BME280;2025;48.260;16.432;2023-08-20T10:49:53;100282.66;;;34.12;33.96
4022;BME280;2025;48.260;16.432;2023-08-20T10:52:22;100277.34;;;33.84;34.04
4022;BME280;2025;48.260;16.432;2023-08-20T10:54:50;100272.41;;;34.17;34.16
4022;BME280;2025;48.260;16.432;2023-08-20T10:57:19;100270.00;;;34.16;35.38
4022;BME280;2025;48.260;16.432;2023-08-20T10:59:57;100272.50;;;34.44;34.71
4022;BME280;2025;48.260;16.432;2023-08-20T11:02:24;100267.28;;;34.65;33.32
4022;BME280;2025;48.260;16.432;2023-08-20T11:04:52;100266.66;;;34.76;35.31
4022;BME280;2025;48.260;16.432;2023-08-20T11:07:20;100267.09;;;34.61;32.24
4022;BME280;2025;48.260;16.432;2023-08-20T11:09:47;100271.16;;;34.72;32.89
4022;BME280;2025;48.260;16.432;2023-08-20T11:12:15;100258.59;;;34.62;31.86
4022;BME280;2025;48.260;16.432;2023-08-20T11:14:43;100271.06;;;34.46;33.89
4022;BME280;2025;48.260;16.432;2023-08-20T11:17:10;100258.69;;;34.49;35.62
4022;BME280;2025;48.260;16.432;2023-08-20T11:19:37;100251.69;;;34.74;33.71
4022;BME280;2025;48.260;16.432;2023-08-20T11:22:05;100257.66;;;34.76;36.66
4022;BME280;2025;48.260;16.432;2023-08-20T11:24:33;100261.94;;;34.59;33.70
4022;BME280;2025;48.260;16.432;2023-08-20T11:27:01;100253.25;;;34.57;31.43
4022;BME280;2025;48.260;16.432;2023-08-20T11:29:29;100254.25;;;34.70;31.77
4022;BME280;2025;48.260;16.432;2023-08-20T11:31:58;100245.91;;;34.67;33.88
4022;BME280;2025;48.260;16.432;2023-08-20T11:34:28;100249.06;;;34.60;33.63
4022;BME280;2025;48.260;16.432;2023-08-20T11:36:55;100241.16;;;34.58;33.13
4022;BME280;2025;48.260;16.432;2023-08-20T11:39:23;100244.00;;;34.36;33.11
4022;BME280;2025;48.260;16.432;2023-08-20T11:41:51;100241.97;;;34.10;32.66
4022;BME280;2025;48.260;16.432;2023-08-20T11:44:22;100232.94;;;34.50;34.68
4022;BME280;2025;48.260;16.432;2023-08-20T11:46:49;100242.19;;;34.71;36.20
4022;BME280;2025;48.260;16.432;2023-08-20T11:49:20;100237.72;;;34.93;31.56
4022;BME280;2025;48.260;16.432;2023-08-20T11:51:55;100243.16;;;34.75;32.22
4022;BME280;2025;48.260;16.432;2023-08-20T11:54:22;100238.06;;;34.42;32.14
4022;BME280;2025;48.260;16.432;2023-08-20T11:56:51;100239.47;;;34.80;31.91
4022;BME280;2025;48.260;16.432;2023-08-20T11:59:19;100248.50;;;34.98;32.76
4022;BME280;2025;48.260;16.432;2023-08-20T12:01:51;100239.03;;;35.30;30.85
4022;BME280;2025;48.260;16.432;2023-08-20T12:04:23;100240.66;;;35.14;30.89
4022;BME280;2025;48.260;16.432;2023-08-20T12:07:02;100240.63;;;34.88;30.67
4022;BME280;2025;48.260;16.432;2023-08-20T12:09:30;100231.56;;;34.70;31.49
4022;BME280;2025;48.260;16.432;2023-08-20T12:11:58;100227.47;;;34.50;31.61
4022;BME280;2025;48.260;16.432;2023-08-20T12:14:25;100229.94;;;34.69;30.95
4022;BME280;2025;48.260;16.432;2023-08-20T12:16:54;100226.78;;;34.93;31.06
4022;BME280;2025;48.260;16.432;2023-08-20T12:19:22;100231.91;;;35.03;31.62
4022;BME280;2025;48.260;16.432;2023-08-20T12:21:49;100228.53;;;34.89;35.95
4022;BME280;2025;48.260;16.432;2023-08-20T12:24:17;100222.91;;;35.02;32.02
4022;BME280;2025;48.260;16.432;2023-08-20T12:26:46;100218.06;;;35.08;31.04
4022;BME280;2025;48.260;16.432;2023-08-20T12:29:13;100217.28;;;35.25;30.58
4022;BME280;2025;48.260;16.432;2023-08-20T12:31:40;100214.63;;;35.72;31.11
4022;BME280;2025;48.260;16.432;2023-08-20T12:34:08;100210.13;;;36.06;29.88
4022;BME280;2025;48.260;16.432;2023-08-20T12:36:36;100207.72;;;36.13;29.52
4022;BME280;2025;48.260;16.432;2023-08-20T12:39:04;100206.69;;;35.88;30.38
4022;BME280;2025;48.260;16.432;2023-08-20T12:41:31;100202.06;;;36.09;29.83
4022;BME280;2025;48.260;16.432;2023-08-20T12:43:58;100197.78;;;36.00;29.71
4022;BME280;2025;48.260;16.432;2023-08-20T12:46:25;100201.25;;;35.71;30.26
4022;BME280;2025;48.260;16.432;2023-08-20T12:48:52;100194.56;;;35.33;32.36
4022;BME280;2025;48.260;16.432;2023-08-20T12:51:19;100201.00;;;35.20;31.84
4022;BME280;2025;48.260;16.432;2023-08-20T12:53:48;100204.22;;;35.22;31.73
4022;BME280;2025;48.260;16.432;2023-08-20T12:56:15;100194.44;;;35.21;31.82
4022;BME280;2025;48.260;16.432;2023-08-20T12:58:42;100187.94;;;35.43;32.42
4022;BME280;2025;48.260;16.432;2023-08-20T13:01:09;100191.03;;;35.97;31.70
4022;BME280;2025;48.260;16.432;2023-08-20T13:03:36;100182.41;;;36.16;30.33
4022;BME280;2025;48.260;16.432;2023-08-20T13:06:04;100186.81;;;36.29;30.68